sensor_id;sensor_type;location;lat;lon;timestamp;P1;durP1;ratioP1;P2;durP2;ratioP2
53598;SDS011;39485;45.702;11.364;2023-02-11T00:00:12;2.40;;;1.70;;
53598;SDS011;39485;45.702;11.364;2023-02-11T00:02:38;2.30;;;2.10;;
53598;SDS011;39485;45.702;11.364;2023-02-11T00:05:04;4.30;;;1.57;;
53598;SDS011;39485;45.702;11.364;2023-02-11T00:07:31;0.83;;;0.83;;
53598;SDS011;39485;45.702;11.364;2023-02-11T00:09:57;1.27;;;1.20;;
53598;SDS011;39485;45.702;11.364;2023-02-11T00:12:23;1.40;;;1.30;;
53598;SDS011;39485;45.702;11.364;2023-02-11T00:14:49;0.40;;;0.40;;
53598;SDS011;39485;45.702;11.364;2023-02-11T00:17:15;1.40;;;1.37;;
53598;SDS011;39485;45.702;11.364;2023-02-11T00:19:41;1.27;;;1.23;;
53598;SDS011;39485;45.702;11.364;2023-02-11T00:22:07;1.13;;;1.13;;
53598;SDS011;39485;45.702;11.364;2023-02-11T00:24:34;0.70;;;0.70;;
53598;SDS011;39485;45.702;11.364;2023-02-11T00:27:00;0.97;;;0.83;;
53598;SDS011;39485;45.702;11.364;2023-02-11T00:29:26;2.43;;;1.80;;
53598;SDS011;39485;45.702;11.364;2023-02-11T00:31:52;1.60;;;1.47;;
53598;SDS011;39485;45.702;11.364;2023-02-11T00:34:18;1.93;;;1.80;;
53598;SDS011;39485;45.702;11.364;2023-02-11T00:36:43;0.87;;;0.87;;
53598;SDS011;39485;45.702;11.364;2023-02-11T00:39:09;1.63;;;1.53;;
53598;SDS011;39485;45.702;11.364;2023-02-11T00:41:35;2.47;;;2.27;;
53598;SDS011;39485;45.702;11.364;2023-02-11T00:44:01;1.27;;;1.23;;
53598;SDS011;39485;45.702;11.364;2023-02-11T00:46:27;1.13;;;1.13;;
53598;SDS011;39485;45.702;11.364;2023-02-11T00:48:53;1.30;;;1.30;;
53598;SDS011;39485;45.702;11.364;2023-02-11T00:51:22;5.93;;;1.47;;
53598;SDS011;39485;45.702;11.364;2023-02-11T00:53:48;0.90;;;0.90;;
53598;SDS011;39485;45.702;11.364;2023-02-11T00:56:14;1.27;;;1.20;;
53598;SDS011;39485;45.702;11.364;2023-02-11T00:58:40;0.70;;;0.70;;
53598;SDS011;39485;45.702;11.364;2023-02-11T01:01:05;0.60;;;0.60;;
53598;SDS011;39485;45.702;11.364;2023-02-11T01:09:18;0.77;;;0.67;;
53598;SDS011;39485;45.702;11.364;2023-02-11T01:11:45;2.67;;;1.13;;
53598;SDS011;39485;45.702;11.364;2023-02-11T01:14:11;1.80;;;1.70;;
53598;SDS011;39485;45.702;11.364;2023-02-11T01:16:37;1.70;;;1.60;;
53598;SDS011;39485;45.702;11.364;2023-02-11T01:19:03;1.13;;;1.03;;
53598;SDS011;39485;45.702;11.364;2023-02-11T01:21:28;1.63;;;1.53;;
53598;SDS011;39485;45.702;11.364;2023-02-11T01:23:54;3.10;;;1.93;;
53598;SDS011;39485;45.702;11.364;2023-02-11T01:26:20;3.87;;;2.57;;
53598;SDS011;39485;45.702;11.364;2023-02-11T01:28:45;17.83;;;1.73;;
53598;SDS011;39485;45.702;11.364;2023-02-11T01:31:11;1.90;;;1.23;;
53598;SDS011;39485;45.702;11.364;2023-02-11T01:33:37;0.67;;;0.67;;
53598;SDS011;39485;45.702;11.364;2023-02-11T01:36:03;0.37;;;0.37;;
53598;SDS011;39485;45.702;11.364;2023-02-11T01:38:30;1.57;;;1.47;;
53598;SDS011;39485;45.702;11.364;2023-02-11T01:43:24;2.53;;;2.43;;
53598;SDS011;39485;45.702;11.364;2023-02-11T01:45:54;0.60;;;0.60;;
53598;SDS011;39485;45.702;11.364;2023-02-11T01:48:36;1.77;;;1.53;;
53598;SDS011;39485;45.702;11.364;2023-02-11T01:51:09;1.83;;;1.73;;
53598;SDS011;39485;45.702;11.364;2023-02-11T01:53:43;1.43;;;1.03;;
53598;SDS011;39485;45.702;11.364;2023-02-11T01:56:28;1.80;;;1.70;;
53598;SDS011;39485;45.702;11.364;2023-02-11T02:01:43;1.43;;;0.70;;
53598;SDS011;39485;45.702;11.364;2023-02-11T02:04:15;0.40;;;0.40;;
53598;SDS011;39485;45.702;11.364;2023-02-11T02:06:43;6.03;;;0.97;;
53598;SDS011;39485;45.702;11.364;2023-02-11T02:09:24;0.30;;;0.30;;
53598;SDS011;39485;45.702;11.364;2023-02-11T02:11:54;0.40;;;0.40;;
53598;SDS011;39485;45.702;11.364;2023-02-11T02:14:20;0.30;;;0.30;;
53598;SDS011;39485;45.702;11.364;2023-02-11T02:16:45;1.20;;;1.17;;
53598;SDS011;39485;45.702;11.364;2023-02-11T02:19:31;0.33;;;0.33;;
53598;SDS011;39485;45.702;11.364;2023-02-11T02:26:04;0.20;;;0.20;;
53598;SDS011;39485;45.702;11.364;2023-02-11T02:28:29;0.47;;;0.47;;
53598;SDS011;39485;45.702;11.364;2023-02-11T02:31:35;1.75;;;1.23;;
53598;SDS011;39485;45.702;11.364;2023-02-11T02:34:28;0.10;;;0.10;;
53598;SDS011;39485;45.702;11.364;2023-02-11T02:37:17;3.13;;;1.80;;
53598;SDS011;39485;45.702;11.364;2023-02-11T02:39:44;0.50;;;0.50;;
53598;SDS011;39485;45.702;11.364;2023-02-11T02:42:12;0.27;;;0.27;;
53598;SDS011;39485;45.702;11.364;2023-02-11T02:44:40;0.90;;;0.90;;
53598;SDS011;39485;45.702;11.364;2023-02-11T02:47:11;3.80;;;2.33;;
53598;SDS011;39485;45.702;11.364;2023-02-11T02:49:37;0.50;;;0.50;;
53598;SDS011;39485;45.702;11.364;2023-02-11T02:52:04;0.90;;;0.90;;
53598;SDS011;39485;45.702;11.364;2023-02-11T02:57:46;1.33;;;1.23;;
53598;SDS011;39485;45.702;11.364;2023-02-11T03:11:06;0.30;;;0.30;;
53598;SDS011;39485;45.702;11.364;2023-02-11T03:13:35;0.60;;;0.60;;
53598;SDS011;39485;45.702;11.364;2023-02-11T03:16:14;0.50;;;0.50;;
53598;SDS011;39485;45.702;11.364;2023-02-11T03:19:02;1.47;;;1.37;;
53598;SDS011;39485;45.702;11.364;2023-02-11T03:21:34;1.00;;;1.00;;
53598;SDS011;39485;45.702;11.364;2023-02-11T03:24:05;1.17;;;1.07;;
53598;SDS011;39485;45.702;11.364;2023-02-11T03:26:37;1.30;;;1.20;;
53598;SDS011;39485;45.702;11.364;2023-02-11T03:34:37;3.20;;;0.77;;
53598;SDS011;39485;45.702;11.364;2023-02-11T03:37:18;0.22;;;0.22;;
53598;SDS011;39485;45.702;11.364;2023-02-11T03:40:22;0.30;;;0.30;;
53598;SDS011;39485;45.702;11.364;2023-02-11T03:42:56;1.87;;;1.23;;
53598;SDS011;39485;45.702;11.364;2023-02-11T03:45:24;2.10;;;0.50;;
53598;SDS011;39485;45.702;11.364;2023-02-11T03:47:54;0.63;;;0.63;;
53598;SDS011;39485;45.702;11.364;2023-02-11T03:50:27;1.58;;;1.48;;
53598;SDS011;39485;45.702;11.364;2023-02-11T03:52:56;3.30;;;1.70;;
53598;SDS011;39485;45.702;11.364;2023-02-11T03:55:24;1.30;;;1.30;;
53598;SDS011;39485;45.702;11.364;2023-02-11T03:57:51;0.73;;;0.73;;
53598;SDS011;39485;45.702;11.364;2023-02-11T04:00:17;1.37;;;1.27;;
53598;SDS011;39485;45.702;11.364;2023-02-11T04:02:43;0.60;;;0.60;;
53598;SDS011;39485;45.702;11.364;2023-02-11T04:05:09;0.63;;;0.63;;
53598;SDS011;39485;45.702;11.364;2023-02-11T04:07:38;1.97;;;1.13;;
53598;SDS011;39485;45.702;11.364;2023-02-11T04:10:04;1.23;;;1.23;;
53598;SDS011;39485;45.702;11.364;2023-02-11T04:12:30;1.70;;;1.60;;
53598;SDS011;39485;45.702;11.364;2023-02-11T04:14:55;0.50;;;0.50;;
53598;SDS011;39485;45.702;11.364;2023-02-11T04:17:21;0.37;;;0.37;;
53598;SDS011;39485;45.702;11.364;2023-02-11T04:19:47;1.83;;;1.40;;
53598;SDS011;39485;45.702;11.364;2023-02-11T04:22:12;0.30;;;0.30;;
53598;SDS011;39485;45.702;11.364;2023-02-11T04:24:38;0.33;;;0.33;;
53598;SDS011;39485;45.702;11.364;2023-02-11T04:27:04;0.30;;;0.30;;
53598;SDS011;39485;45.702;11.364;2023-02-11T04:29:29;0.43;;;0.43;;
53598;SDS011;39485;45.702;11.364;2023-02-11T04:31:56;1.03;;;0.90;;
53598;SDS011;39485;45.702;11.364;2023-02-11T04:34:21;0.43;;;0.43;;
53598;SDS011;39485;45.702;11.364;2023-02-11T04:36:48;0.30;;;0.30;;
53598;SDS011;39485;45.702;11.364;2023-02-11T04:39:15;0.97;;;0.97;;
53598;SDS011;39485;45.702;11.364;2023-02-11T04:41:40;0.30;;;0.30;;
53598;SDS011;39485;45.702;11.364;2023-02-11T04:44:06;0.43;;;0.43;;
53598;SDS011;39485;45.702;11.364;2023-02-11T04:46:32;0.80;;;0.80;;
53598;SDS011;39485;45.702;11.364;2023-02-11T04:48:57;2.07;;;1.53;;
53598;SDS011;39485;45.702;11.364;2023-02-11T04:51:23;0.60;;;0.60;;
53598;SDS011;39485;45.702;11.364;2023-02-11T04:53:49;1.30;;;1.20;;
53598;SDS011;39485;45.702;11.364;2023-02-11T04:56:14;0.50;;;0.50;;
53598;SDS011;39485;45.702;11.364;2023-02-11T04:58:40;0.70;;;0.70;;
53598;SDS011;39485;45.702;11.364;2023-02-11T05:01:06;0.57;;;0.57;;
53598;SDS011;39485;45.702;11.364;2023-02-11T05:03:36;1.63;;;1.50;;
53598;SDS011;39485;45.702;11.364;2023-02-11T05:06:02;1.27;;;1.17;;
53598;SDS011;39485;45.702;11.364;2023-02-11T05:08:29;1.63;;;1.53;;
53598;SDS011;39485;45.702;11.364;2023-02-11T05:10:54;0.70;;;0.70;;
53598;SDS011;39485;45.702;11.364;2023-02-11T05:13:20;0.90;;;0.90;;
53598;SDS011;39485;45.702;11.364;2023-02-11T05:15:46;0.30;;;0.30;;
53598;SDS011;39485;45.702;11.364;2023-02-11T05:18:12;1.40;;;1.03;;
53598;SDS011;39485;45.702;11.364;2023-02-11T05:20:41;1.10;;;0.80;;
53598;SDS011;39485;45.702;11.364;2023-02-11T05:23:07;0.70;;;0.70;;
53598;SDS011;39485;45.702;11.364;2023-02-11T05:25:33;0.30;;;0.30;;
53598;SDS011;39485;45.702;11.364;2023-02-11T05:27:58;0.50;;;0.50;;
53598;SDS011;39485;45.702;11.364;2023-02-11T05:30:24;0.83;;;0.83;;
53598;SDS011;39485;45.702;11.364;2023-02-11T05:32:50;0.53;;;0.53;;
53598;SDS011;39485;45.702;11.364;2023-02-11T05:35:16;1.00;;;1.00;;
53598;SDS011;39485;45.702;11.364;2023-02-11T05:37:42;0.70;;;0.70;;
53598;SDS011;39485;45.702;11.364;2023-02-11T05:40:08;0.73;;;0.73;;
53598;SDS011;39485;45.702;11.364;2023-02-11T05:42:33;1.33;;;1.23;;
53598;SDS011;39485;45.702;11.364;2023-02-11T05:44:59;1.10;;;1.10;;
53598;SDS011;39485;45.702;11.364;2023-02-11T05:47:25;9.73;;;2.97;;
53598;SDS011;39485;45.702;11.364;2023-02-11T05:49:51;1.07;;;1.03;;
53598;SDS011;39485;45.702;11.364;2023-02-11T05:52:17;0.77;;;0.77;;
53598;SDS011;39485;45.702;11.364;2023-02-11T05:54:44;0.43;;;0.43;;
53598;SDS011;39485;45.702;11.364;2023-02-11T05:57:09;0.60;;;0.60;;
53598;SDS011;39485;45.702;11.364;2023-02-11T05:59:35;1.23;;;0.80;;
53598;SDS011;39485;45.702;11.364;2023-02-11T06:02:01;1.33;;;1.27;;
53598;SDS011;39485;45.702;11.364;2023-02-11T06:04:27;3.87;;;2.53;;
53598;SDS011;39485;45.702;11.364;2023-02-11T06:06:52;0.30;;;0.30;;
53598;SDS011;39485;45.702;11.364;2023-02-11T06:09:18;0.60;;;0.60;;
53598;SDS011;39485;45.702;11.364;2023-02-11T06:11:43;0.30;;;0.30;;
53598;SDS011;39485;45.702;11.364;2023-02-11T06:14:09;1.53;;;1.43;;
53598;SDS011;39485;45.702;11.364;2023-02-11T06:16:35;0.80;;;0.80;;
53598;SDS011;39485;45.702;11.364;2023-02-11T06:19:01;0.80;;;0.80;;
53598;SDS011;39485;45.702;11.364;2023-02-11T06:21:27;0.60;;;0.60;;
53598;SDS011;39485;45.702;11.364;2023-02-11T06:23:52;0.30;;;0.30;;
53598;SDS011;39485;45.702;11.364;2023-02-11T06:26:19;1.33;;;1.30;;
53598;SDS011;39485;45.702;11.364;2023-02-11T06:28:46;2.37;;;0.77;;
53598;SDS011;39485;45.702;11.364;2023-02-11T06:31:12;1.70;;;1.60;;
53598;SDS011;39485;45.702;11.364;2023-02-11T06:33:38;16.27;;;1.70;;
53598;SDS011;39485;45.702;11.364;2023-02-11T06:36:10;0.60;;;0.60;;
53598;SDS011;39485;45.702;11.364;2023-02-11T06:38:40;0.93;;;0.93;;
53598;SDS011;39485;45.702;11.364;2023-02-11T06:41:08;2.13;;;2.03;;
53598;SDS011;39485;45.702;11.364;2023-02-11T06:43:37;1.50;;;1.40;;
53598;SDS011;39485;45.702;11.364;2023-02-11T06:46:04;1.67;;;1.57;;
53598;SDS011;39485;45.702;11.364;2023-02-11T06:48:30;1.47;;;1.40;;
53598;SDS011;39485;45.702;11.364;2023-02-11T06:50:56;2.70;;;2.57;;
53598;SDS011;39485;45.702;11.364;2023-02-11T06:53:25;1.40;;;1.30;;
53598;SDS011;39485;45.702;11.364;2023-02-11T06:55:50;1.23;;;1.23;;
53598;SDS011;39485;45.702;11.364;2023-02-11T06:58:16;0.37;;;0.37;;
53598;SDS011;39485;45.702;11.364;2023-02-11T07:00:41;0.97;;;0.97;;
53598;SDS011;39485;45.702;11.364;2023-02-11T07:03:07;0.70;;;0.70;;
53598;SDS011;39485;45.702;11.364;2023-02-11T07:05:33;0.97;;;0.97;;
53598;SDS011;39485;45.702;11.364;2023-02-11T07:07:59;0.57;;;0.57;;
53598;SDS011;39485;45.702;11.364;2023-02-11T07:10:24;0.77;;;0.70;;
53598;SDS011;39485;45.702;11.364;2023-02-11T07:12:50;0.40;;;0.40;;
53598;SDS011;39485;45.702;11.364;2023-02-11T07:15:16;0.60;;;0.60;;
53598;SDS011;39485;45.702;11.364;2023-02-11T07:17:42;0.53;;;0.53;;
53598;SDS011;39485;45.702;11.364;2023-02-11T07:20:07;1.00;;;1.00;;
53598;SDS011;39485;45.702;11.364;2023-02-11T07:22:36;1.07;;;1.07;;
53598;SDS011;39485;45.702;11.364;2023-02-11T07:25:02;0.43;;;0.43;;
53598;SDS011;39485;45.702;11.364;2023-02-11T07:27:28;0.93;;;0.93;;
53598;SDS011;39485;45.702;11.364;2023-02-11T07:29:54;1.77;;;1.67;;
53598;SDS011;39485;45.702;11.364;2023-02-11T07:32:19;1.57;;;1.47;;
53598;SDS011;39485;45.702;11.364;2023-02-11T07:34:45;5.53;;;1.90;;
53598;SDS011;39485;45.702;11.364;2023-02-11T07:37:12;1.43;;;1.33;;
53598;SDS011;39485;45.702;11.364;2023-02-11T07:39:38;2.47;;;2.27;;
53598;SDS011;39485;45.702;11.364;2023-02-11T07:42:03;1.00;;;1.00;;
53598;SDS011;39485;45.702;11.364;2023-02-11T07:44:29;3.13;;;2.10;;
53598;SDS011;39485;45.702;11.364;2023-02-11T07:46:57;0.57;;;0.57;;
53598;SDS011;39485;45.702;11.364;2023-02-11T07:49:23;1.20;;;1.20;;
53598;SDS011;39485;45.702;11.364;2023-02-11T07:51:49;1.10;;;0.80;;
53598;SDS011;39485;45.702;11.364;2023-02-11T07:54:15;0.80;;;0.80;;
53598;SDS011;39485;45.702;11.364;2023-02-11T07:56:41;2.67;;;1.60;;
53598;SDS011;39485;45.702;11.364;2023-02-11T07:59:07;9.07;;;2.33;;
53598;SDS011;39485;45.702;11.364;2023-02-11T08:01:34;1.00;;;0.93;;
53598;SDS011;39485;45.702;11.364;2023-02-11T08:04:00;3.53;;;0.90;;
53598;SDS011;39485;45.702;11.364;2023-02-11T08:06:28;1.10;;;1.10;;
53598;SDS011;39485;45.702;11.364;2023-02-11T08:08:55;0.77;;;0.77;;
53598;SDS011;39485;45.702;11.364;2023-02-11T08:11:24;2.93;;;2.00;;
53598;SDS011;39485;45.702;11.364;2023-02-11T08:13:52;4.03;;;1.17;;
53598;SDS011;39485;45.702;11.364;2023-02-11T08:16:21;0.80;;;0.80;;
53598;SDS011;39485;45.702;11.364;2023-02-11T08:18:47;0.47;;;0.47;;
53598;SDS011;39485;45.702;11.364;2023-02-11T08:21:14;3.77;;;2.40;;
53598;SDS011;39485;45.702;11.364;2023-02-11T08:23:40;0.97;;;0.97;;
53598;SDS011;39485;45.702;11.364;2023-02-11T08:26:08;1.67;;;1.57;;
53598;SDS011;39485;45.702;11.364;2023-02-11T08:28:41;1.60;;;1.10;;
53598;SDS011;39485;45.702;11.364;2023-02-11T08:31:09;0.50;;;0.50;;
53598;SDS011;39485;45.702;11.364;2023-02-11T08:33:37;0.70;;;0.70;;
53598;SDS011;39485;45.702;11.364;2023-02-11T08:36:08;1.40;;;1.20;;
53598;SDS011;39485;45.702;11.364;2023-02-11T08:38:39;0.60;;;0.60;;
53598;SDS011;39485;45.702;11.364;2023-02-11T08:41:05;1.60;;;1.03;;
53598;SDS011;39485;45.702;11.364;2023-02-11T08:43:31;1.70;;;1.60;;
53598;SDS011;39485;45.702;11.364;2023-02-11T08:45:57;2.43;;;1.13;;
53598;SDS011;39485;45.702;11.364;2023-02-11T08:48:23;2.10;;;1.73;;
53598;SDS011;39485;45.702;11.364;2023-02-11T08:50:48;1.23;;;1.13;;
53598;SDS011;39485;45.702;11.364;2023-02-11T08:53:14;3.40;;;1.00;;
53598;SDS011;39485;45.702;11.364;2023-02-11T08:55:40;0.60;;;0.60;;
53598;SDS011;39485;45.702;11.364;2023-02-11T08:58:19;0.90;;;0.90;;
53598;SDS011;39485;45.702;11.364;2023-02-11T09:00:46;1.20;;;1.20;;
53598;SDS011;39485;45.702;11.364;2023-02-11T09:03:12;0.70;;;0.70;;
53598;SDS011;39485;45.702;11.364;2023-02-11T09:05:48;3.03;;;1.47;;
53598;SDS011;39485;45.702;11.364;2023-02-11T09:08:16;1.33;;;1.23;;
53598;SDS011;39485;45.702;11.364;2023-02-11T09:10:43;0.83;;;0.83;;
53598;SDS011;39485;45.702;11.364;2023-02-11T09:13:09;1.00;;;1.00;;
53598;SDS011;39485;45.702;11.364;2023-02-11T09:15:35;0.80;;;0.80;;
53598;SDS011;39485;45.702;11.364;2023-02-11T09:18:01;1.77;;;1.63;;
53598;SDS011;39485;45.702;11.364;2023-02-11T09:20:26;1.30;;;1.20;;
53598;SDS011;39485;45.702;11.364;2023-02-11T09:22:53;1.43;;;0.97;;
53598;SDS011;39485;45.702;11.364;2023-02-11T09:25:20;0.80;;;0.80;;
53598;SDS011;39485;45.702;11.364;2023-02-11T09:27:46;0.80;;;0.80;;
53598;SDS011;39485;45.702;11.364;2023-02-11T09:30:12;0.80;;;0.80;;
53598;SDS011;39485;45.702;11.364;2023-02-11T09:32:37;0.63;;;0.63;;
53598;SDS011;39485;45.702;11.364;2023-02-11T09:35:03;0.30;;;0.30;;
53598;SDS011;39485;45.702;11.364;2023-02-11T09:37:29;0.40;;;0.40;;
53598;SDS011;39485;45.702;11.364;2023-02-11T09:39:55;0.73;;;0.73;;
53598;SDS011;39485;45.702;11.364;2023-02-11T09:45:21;0.50;;;0.50;;
53598;SDS011;39485;45.702;11.364;2023-02-11T09:47:53;0.67;;;0.67;;
53598;SDS011;39485;45.702;11.364;2023-02-11T09:50:24;1.30;;;1.27;;
53598;SDS011;39485;45.702;11.364;2023-02-11T09:53:02;0.53;;;0.50;;
53598;SDS011;39485;45.702;11.364;2023-02-11T09:55:35;0.60;;;0.60;;
53598;SDS011;39485;45.702;11.364;2023-02-11T09:58:12;2.00;;;1.50;;
53598;SDS011;39485;45.702;11.364;2023-02-11T10:00:47;0.73;;;0.73;;
53598;SDS011;39485;45.702;11.364;2023-02-11T10:11:07;0.87;;;0.87;;
53598;SDS011;39485;45.702;11.364;2023-02-11T10:21:44;1.15;;;1.08;;
53598;SDS011;39485;45.702;11.364;2023-02-11T10:24:25;3.87;;;0.63;;
53598;SDS011;39485;45.702;11.364;2023-02-11T10:26:53;0.97;;;0.97;;
53598;SDS011;39485;45.702;11.364;2023-02-11T10:29:30;0.50;;;0.50;;
53598;SDS011;39485;45.702;11.364;2023-02-11T10:32:03;1.43;;;1.33;;
53598;SDS011;39485;45.702;11.364;2023-02-11T10:35:01;0.67;;;0.67;;
53598;SDS011;39485;45.702;11.364;2023-02-11T10:37:34;2.25;;;2.05;;
53598;SDS011;39485;45.702;11.364;2023-02-11T10:39:59;1.97;;;0.53;;
53598;SDS011;39485;45.702;11.364;2023-02-11T10:42:25;1.00;;;1.00;;
53598;SDS011;39485;45.702;11.364;2023-02-11T10:44:59;1.23;;;1.17;;
53598;SDS011;39485;45.702;11.364;2023-02-11T10:47:33;3.27;;;1.33;;
53598;SDS011;39485;45.702;11.364;2023-02-11T10:50:17;3.90;;;1.50;;
53598;SDS011;39485;45.702;11.364;2023-02-11T10:52:48;0.43;;;0.43;;
53598;SDS011;39485;45.702;11.364;2023-02-11T10:55:15;1.13;;;1.13;;
53598;SDS011;39485;45.702;11.364;2023-02-11T10:58:02;0.33;;;0.33;;
53598;SDS011;39485;45.702;11.364;2023-02-11T11:00:37;0.50;;;0.50;;
53598;SDS011;39485;45.702;11.364;2023-02-11T11:03:14;1.93;;;1.33;;
53598;SDS011;39485;45.702;11.364;2023-02-11T11:08:15;0.67;;;0.67;;
53598;SDS011;39485;45.702;11.364;2023-02-11T11:10:43;0.40;;;0.40;;
53598;SDS011;39485;45.702;11.364;2023-02-11T11:13:24;0.97;;;0.70;;
53598;SDS011;39485;45.702;11.364;2023-02-11T11:16:33;1.37;;;1.23;;
53598;SDS011;39485;45.702;11.364;2023-02-11T11:18:42;0.67;;;0.63;;
53598;SDS011;39485;45.702;11.364;2023-02-11T11:26:57;1.17;;;1.17;;
53598;SDS011;39485;45.702;11.364;2023-02-11T11:29:37;1.43;;;1.43;;
53598;SDS011;39485;45.702;11.364;2023-02-11T11:32:15;1.23;;;1.00;;
53598;SDS011;39485;45.702;11.364;2023-02-11T11:35:02;0.30;;;0.30;;
53598;SDS011;39485;45.702;11.364;2023-02-11T11:37:32;0.90;;;0.87;;
53598;SDS011;39485;45.702;11.364;2023-02-11T11:42:41;0.57;;;0.57;;
53598;SDS011;39485;45.702;11.364;2023-02-11T11:50:25;0.93;;;0.93;;
53598;SDS011;39485;45.702;11.364;2023-02-11T11:58:15;0.70;;;0.70;;
53598;SDS011;39485;45.702;11.364;2023-02-11T12:09:21;7.23;;;1.20;;
53598;SDS011;39485;45.702;11.364;2023-02-11T12:14:48;0.88;;;0.88;;
53598;SDS011;39485;45.702;11.364;2023-02-11T12:21:06;0.57;;;0.57;;
53598;SDS011;39485;45.702;11.364;2023-02-11T12:24:05;0.38;;;0.38;;
53598;SDS011;39485;45.702;11.364;2023-02-11T12:27:00;1.38;;;1.20;;
53598;SDS011;39485;45.702;11.364;2023-02-11T12:30:01;1.55;;;0.95;;
53598;SDS011;39485;45.702;11.364;2023-02-11T12:41:03;0.55;;;0.55;;
53598;SDS011;39485;45.702;11.364;2023-02-11T12:43:41;0.50;;;0.50;;
53598;SDS011;39485;45.702;11.364;2023-02-11T12:55:16;0.88;;;0.88;;
53598;SDS011;39485;45.702;11.364;2023-02-11T12:57:47;0.73;;;0.73;;
53598;SDS011;39485;45.702;11.364;2023-02-11T13:16:50;0.85;;;0.63;;
53598;SDS011;39485;45.702;11.364;2023-02-11T13:20:00;0.60;;;0.60;;
53598;SDS011;39485;45.702;11.364;2023-02-11T13:25:04;1.27;;;1.27;;
53598;SDS011;39485;45.702;11.364;2023-02-11T13:27:59;1.10;;;1.10;;
53598;SDS011;39485;45.702;11.364;2023-02-11T13:30:49;3.28;;;1.15;;
53598;SDS011;39485;45.702;11.364;2023-02-11T13:33:33;1.20;;;0.98;;
53598;SDS011;39485;45.702;11.364;2023-02-11T13:38:26;0.55;;;0.55;;
53598;SDS011;39485;45.702;11.364;2023-02-11T13:40:58;3.47;;;1.20;;
53598;SDS011;39485;45.702;11.364;2023-02-11T13:43:33;2.15;;;1.35;;
53598;SDS011;39485;45.702;11.364;2023-02-11T13:51:10;0.98;;;0.75;;
53598;SDS011;39485;45.702;11.364;2023-02-11T13:53:55;1.77;;;1.63;;
53598;SDS011;39485;45.702;11.364;2023-02-11T13:58:58;1.60;;;1.02;;
53598;SDS011;39485;45.702;11.364;2023-02-11T14:04:33;0.40;;;0.40;;
53598;SDS011;39485;45.702;11.364;2023-02-11T14:13:04;4.78;;;1.42;;
53598;SDS011;39485;45.702;11.364;2023-02-11T14:15:37;1.17;;;1.05;;
53598;SDS011;39485;45.702;11.364;2023-02-11T14:21:14;3.30;;;1.15;;
53598;SDS011;39485;45.702;11.364;2023-02-11T14:23:42;1.33;;;0.90;;
53598;SDS011;39485;45.702;11.364;2023-02-11T14:34:35;1.02;;;0.70;;
53598;SDS011;39485;45.702;11.364;2023-02-11T14:42:40;2.03;;;1.92;;
53598;SDS011;39485;45.702;11.364;2023-02-11T14:45:07;2.05;;;1.80;;
53598;SDS011;39485;45.702;11.364;2023-02-11T14:47:45;3.40;;;1.58;;
53598;SDS011;39485;45.702;11.364;2023-02-11T14:50:59;1.38;;;1.27;;
53598;SDS011;39485;45.702;11.364;2023-02-11T14:53:20;2.05;;;1.20;;
53598;SDS011;39485;45.702;11.364;2023-02-11T14:55:52;2.53;;;2.33;;
53598;SDS011;39485;45.702;11.364;2023-02-11T14:58:21;1.05;;;0.47;;
53598;SDS011;39485;45.702;11.364;2023-02-11T15:05:55;0.47;;;0.47;;
53598;SDS011;39485;45.702;11.364;2023-02-11T15:08:46;0.60;;;0.60;;
53598;SDS011;39485;45.702;11.364;2023-02-11T15:11:14;1.27;;;1.00;;
53598;SDS011;39485;45.702;11.364;2023-02-11T15:13:43;0.82;;;0.82;;
53598;SDS011;39485;45.702;11.364;2023-02-11T15:16:17;1.42;;;1.33;;
53598;SDS011;39485;45.702;11.364;2023-02-11T15:18:52;2.20;;;1.35;;
53598;SDS011;39485;45.702;11.364;2023-02-11T15:21:24;1.80;;;1.70;;
53598;SDS011;39485;45.702;11.364;2023-02-11T15:24:00;0.75;;;0.75;;
53598;SDS011;39485;45.702;11.364;2023-02-11T15:26:44;0.60;;;0.60;;
53598;SDS011;39485;45.702;11.364;2023-02-11T15:29:19;0.70;;;0.70;;
53598;SDS011;39485;45.702;11.364;2023-02-11T15:32:01;0.40;;;0.40;;
53598;SDS011;39485;45.702;11.364;2023-02-11T15:34:48;2.17;;;1.23;;
53598;SDS011;39485;45.702;11.364;2023-02-11T15:37:18;3.50;;;1.13;;
53598;SDS011;39485;45.702;11.364;2023-02-11T15:39:52;1.33;;;1.23;;
53598;SDS011;39485;45.702;11.364;2023-02-11T15:42:20;0.32;;;0.32;;
53598;SDS011;39485;45.702;11.364;2023-02-11T15:47:37;1.17;;;1.07;;
53598;SDS011;39485;45.702;11.364;2023-02-11T15:50:05;0.90;;;0.90;;
53598;SDS011;39485;45.702;11.364;2023-02-11T15:52:32;1.67;;;1.57;;
53598;SDS011;39485;45.702;11.364;2023-02-11T15:54:58;0.98;;;0.93;;
53598;SDS011;39485;45.702;11.364;2023-02-11T15:57:26;1.98;;;1.25;;
53598;SDS011;39485;45.702;11.364;2023-02-11T15:59:53;0.30;;;0.30;;
53598;SDS011;39485;45.702;11.364;2023-02-11T16:02:30;1.00;;;1.00;;
53598;SDS011;39485;45.702;11.364;2023-02-11T16:04:59;2.00;;;1.90;;
53598;SDS011;39485;45.702;11.364;2023-02-11T16:10:24;3.20;;;1.10;;
53598;SDS011;39485;45.702;11.364;2023-02-11T16:15:40;1.23;;;1.13;;
53598;SDS011;39485;45.702;11.364;2023-02-11T16:25:15;1.50;;;1.50;;
53598;SDS011;39485;45.702;11.364;2023-02-11T17:17:58;11.83;;;3.90;;
53598;SDS011;39485;45.702;11.364;2023-02-11T17:35:28;4.83;;;4.50;;
53598;SDS011;39485;45.702;11.364;2023-02-11T17:37:54;6.77;;;4.53;;
53598;SDS011;39485;45.702;11.364;2023-02-11T17:40:19;5.73;;;5.33;;
53598;SDS011;39485;45.702;11.364;2023-02-11T17:42:45;7.10;;;6.40;;
53598;SDS011;39485;45.702;11.364;2023-02-11T17:45:10;5.20;;;4.53;;
53598;SDS011;39485;45.702;11.364;2023-02-11T17:47:37;7.77;;;5.40;;
53598;SDS011;39485;45.702;11.364;2023-02-11T17:50:03;5.90;;;4.90;;
53598;SDS011;39485;45.702;11.364;2023-02-11T17:52:29;5.90;;;4.77;;
53598;SDS011;39485;45.702;11.364;2023-02-11T17:54:55;11.57;;;5.70;;
53598;SDS011;39485;45.702;11.364;2023-02-11T17:57:22;3.87;;;2.80;;
53598;SDS011;39485;45.702;11.364;2023-02-11T17:59:47;4.70;;;3.33;;
53598;SDS011;39485;45.702;11.364;2023-02-11T18:02:13;6.43;;;4.73;;
53598;SDS011;39485;45.702;11.364;2023-02-11T18:04:39;4.90;;;4.17;;
53598;SDS011;39485;45.702;11.364;2023-02-11T18:07:05;3.13;;;2.90;;
53598;SDS011;39485;45.702;11.364;2023-02-11T18:09:34;2.37;;;2.27;;
53598;SDS011;39485;45.702;11.364;2023-02-11T18:12:01;7.17;;;4.67;;
53598;SDS011;39485;45.702;11.364;2023-02-11T18:14:27;5.47;;;4.03;;
53598;SDS011;39485;45.702;11.364;2023-02-11T18:16:52;5.33;;;4.83;;
53598;SDS011;39485;45.702;11.364;2023-02-11T18:19:18;2.77;;;2.67;;
53598;SDS011;39485;45.702;11.364;2023-02-11T18:21:44;4.63;;;3.03;;
53598;SDS011;39485;45.702;11.364;2023-02-11T18:24:12;7.67;;;3.70;;
53598;SDS011;39485;45.702;11.364;2023-02-11T18:26:38;5.83;;;4.00;;
53598;SDS011;39485;45.702;11.364;2023-02-11T18:29:05;6.73;;;3.87;;
53598;SDS011;39485;45.702;11.364;2023-02-11T18:31:31;3.20;;;3.00;;
53598;SDS011;39485;45.702;11.364;2023-02-11T18:33:59;9.53;;;4.83;;
53598;SDS011;39485;45.702;11.364;2023-02-11T18:36:25;6.50;;;4.30;;
53598;SDS011;39485;45.702;11.364;2023-02-11T18:38:51;4.27;;;3.97;;
53598;SDS011;39485;45.702;11.364;2023-02-11T18:41:18;7.03;;;4.27;;
53598;SDS011;39485;45.702;11.364;2023-02-11T18:43:44;3.37;;;3.07;;
53598;SDS011;39485;45.702;11.364;2023-02-11T18:46:12;2.87;;;2.63;;
53598;SDS011;39485;45.702;11.364;2023-02-11T18:48:39;4.20;;;3.50;;
53598;SDS011;39485;45.702;11.364;2023-02-11T18:51:08;7.23;;;4.87;;
53598;SDS011;39485;45.702;11.364;2023-02-11T18:53:43;3.77;;;3.43;;
53598;SDS011;39485;45.702;11.364;2023-02-11T18:56:10;3.20;;;2.93;;